createdAt,value
2018-07-01T09:17:10.717Z,98088.28
2018-07-01T09:18:17.713Z,98096.00
2018-07-01T09:19:22.465Z,98095.37
2018-07-01T09:20:33.425Z,98086.76
2018-07-01T09:21:44.327Z,98087.59
2018-07-01T09:22:56.551Z,98082.57
2018-07-01T09:24:06.844Z,98085.08
2018-07-01T09:25:12.335Z,98088.48
2018-07-01T09:26:16.332Z,98087.45
2018-07-01T09:27:19.084Z,98089.94
2018-07-01T09:28:25.691Z,98088.75
2018-07-01T09:29:29.796Z,98087.59
2018-07-01T09:30:33.223Z,98079.47
2018-07-01T09:31:36.566Z,98075.45
2018-07-01T09:32:40.626Z,98084.72
2018-07-01T09:33:43.857Z,98079.48
2018-07-01T09:34:47.274Z,98075.73
2018-07-01T09:35:50.044Z,98086.12
2018-07-01T09:36:53.395Z,98089.04
2018-07-01T09:37:56.342Z,98081.30
2018-07-01T09:38:59.740Z,98082.88
2018-07-01T09:40:02.707Z,98087.05
2018-07-01T09:41:06.720Z,98086.27
2018-07-01T09:42:10.247Z,98080.03
2018-07-01T09:43:13.845Z,98079.20
2018-07-01T09:44:16.854Z,98089.86
2018-07-01T09:45:19.949Z,98079.81
2018-07-01T09:46:23.617Z,98081.80
2018-07-01T09:47:26.689Z,98079.40
2018-07-01T09:48:31.103Z,98078.83
2018-07-01T09:49:33.993Z,98081.19
2018-07-01T09:50:40.879Z,98074.98
2018-07-01T09:51:43.757Z,98082.17
2018-07-01T09:52:47.798Z,98081.80
2018-07-01T09:53:51.837Z,98079.61
2018-07-01T09:54:54.590Z,98082.17
2018-07-01T09:55:58.704Z,98077.23
2018-07-01T09:57:06.438Z,98084.95
2018-07-01T09:58:09.332Z,98086.34
2018-07-01T09:59:12.480Z,98089.67
2018-07-01T10:00:15.787Z,98077.54
2018-07-01T10:01:20.399Z,98077.97
2018-07-01T10:02:24.583Z,98083.30
2018-07-01T10:03:30.431Z,98082.13
2018-07-01T10:04:33.571Z,98075.66
2018-07-01T10:05:37.297Z,98074.23
2018-07-01T10:06:44.131Z,98080.95
2018-07-01T10:07:47.505Z,98070.30
2018-07-01T10:08:53.571Z,98063.88
2018-07-01T10:09:59.184Z,98066.34
2018-07-01T10:11:03.191Z,98072.87
2018-07-01T10:12:06.131Z,98064.91
2018-07-01T10:13:09.226Z,98077.84
2018-07-01T10:14:12.154Z,98075.25
2018-07-01T10:15:16.402Z,98067.26
2018-07-01T10:16:20.306Z,98075.42
2018-07-01T10:17:24.152Z,98073.30
2018-07-01T10:18:28.108Z,98071.48
2018-07-01T10:19:31.577Z,98063.33
2018-07-01T10:20:35.397Z,98067.24
2018-07-01T10:21:40.085Z,98064.75
2018-07-01T10:22:43.408Z,98068.02
2018-07-01T10:23:46.795Z,98064.03
2018-07-01T10:24:50.464Z,98068.09
2018-07-01T10:25:53.747Z,98062.20
2018-07-01T10:26:58.802Z,98057.91
2018-07-01T10:28:03.189Z,98059.98
2018-07-01T10:29:15.620Z,98050.61
2018-07-01T10:30:19.487Z,98049.57
2018-07-01T10:31:24.252Z,98059.08
2018-07-01T10:32:28.361Z,98053.39
2018-07-01T10:33:31.828Z,98052.88
2018-07-01T10:34:34.852Z,98053.45
2018-07-01T10:35:37.824Z,98071.12
2018-07-01T10:36:41.233Z,98067.33
2018-07-01T10:37:45.656Z,98068.67
2018-07-01T10:38:49.631Z,98057.69
2018-07-01T10:39:53.472Z,98055.52
2018-07-01T10:40:58.266Z,98065.54
2018-07-01T10:42:06.699Z,98059.27
2018-07-01T10:43:10.134Z,98058.16
2018-07-01T10:44:27.800Z,98053.64
2018-07-01T10:45:35.214Z,98056.66
2018-07-01T10:46:40.716Z,98053.27
2018-07-01T10:47:44.439Z,98052.56
2018-07-01T10:48:48.099Z,98038.95
2018-07-01T10:49:51.386Z,98054.81
2018-07-01T10:50:56.399Z,98057.30
2018-07-01T10:51:59.273Z,98051.42
2018-07-01T10:53:04.100Z,98052.83
2018-07-01T10:54:07.146Z,98051.09
2018-07-01T10:55:11.217Z,98051.25
2018-07-01T10:56:15.255Z,98045.96
2018-07-01T10:57:18.448Z,98049.45
2018-07-01T10:58:23.655Z,98052.96
2018-07-01T10:59:27.682Z,98053.39
2018-07-01T11:00:34.278Z,98056.00
2018-07-01T11:01:37.584Z,98053.39
2018-07-01T11:02:43.670Z,98046.98
2018-07-01T11:03:49.003Z,98040.78
2018-07-01T11:04:52.003Z,98043.50
2018-07-01T11:05:55.573Z,98039.27
2018-07-01T11:06:58.458Z,98046.64
2018-07-01T11:08:03.383Z,98041.53
2018-07-01T11:09:09.907Z,98046.17
2018-07-01T11:10:12.813Z,98045.16
2018-07-01T11:11:15.801Z,98047.41
2018-07-01T11:12:19.416Z,98036.86
2018-07-01T11:13:26.300Z,98045.27
2018-07-01T11:14:37.684Z,98049.49
2018-07-01T11:15:41.208Z,98044.59
2018-07-01T11:16:43.976Z,98040.77
2018-07-01T11:17:47.756Z,98041.32
2018-07-01T11:18:50.574Z,98046.16
2018-07-01T11:19:54.640Z,98047.88
2018-07-01T11:20:57.901Z,98037.83
2018-07-01T11:22:01.338Z,98040.67
2018-07-01T11:23:04.184Z,98040.04
2018-07-01T11:24:06.995Z,98043.49
2018-07-01T11:25:10.402Z,98035.18
2018-07-01T11:26:13.271Z,98033.67
2018-07-01T11:27:16.500Z,98039.31
2018-07-01T11:28:20.396Z,98025.99
2018-07-01T11:29:23.288Z,98032.81
2018-07-01T11:30:26.847Z,98028.45
2018-07-01T11:31:31.334Z,98040.06
2018-07-01T11:32:34.610Z,98033.42
2018-07-01T11:33:40.629Z,98033.19
2018-07-01T11:34:44.053Z,98025.18
2018-07-01T11:35:47.788Z,98029.67
2018-07-01T11:36:55.522Z,98028.39
2018-07-01T11:37:59.993Z,98029.64
2018-07-01T11:39:03.830Z,98028.05
2018-07-01T11:40:07.317Z,98026.94
2018-07-01T11:41:10.348Z,98031.09
2018-07-01T11:42:13.136Z,98033.48
2018-07-01T11:43:18.577Z,98022.20
2018-07-01T11:44:21.526Z,98033.70
2018-07-01T11:45:24.449Z,98027.67
2018-07-01T11:46:28.700Z,98022.58
2018-07-01T11:47:35.220Z,98026.61
2018-07-01T11:48:38.987Z,98027.17
2018-07-01T11:49:43.275Z,98017.32
2018-07-01T11:50:47.300Z,98011.72
2018-07-01T11:51:50.225Z,98015.28
2018-07-01T11:52:53.354Z,98018.25
2018-07-01T11:53:57.707Z,98017.94
2018-07-01T11:55:05.828Z,98009.98
2018-07-01T11:56:09.751Z,98018.87
2018-07-01T11:57:13.380Z,98014.39
2018-07-01T11:58:16.224Z,98016.88
2018-07-01T11:59:19.663Z,98013.06
2018-07-01T12:00:22.600Z,98008.28
2018-07-01T12:01:27.251Z,98016.16
2018-07-01T12:02:30.193Z,98014.34
2018-07-01T12:03:32.949Z,98015.89
2018-07-01T12:04:35.748Z,98015.41
2018-07-01T12:05:39.782Z,98008.25
2018-07-01T12:06:43.100Z,98008.84
2018-07-01T12:07:48.505Z,98007.92
2018-07-01T12:08:51.895Z,98011.67
2018-07-01T12:09:54.948Z,98009.74
2018-07-01T12:10:58.100Z,98005.65
2018-07-01T12:12:01.324Z,98016.50
2018-07-01T12:13:05.139Z,98014.41
2018-07-01T12:14:07.997Z,98008.55
2018-07-01T12:15:11.625Z,98010.66
2018-07-01T12:16:15.288Z,98008.23
2018-07-01T12:17:19.661Z,98012.67
2018-07-01T12:18:23.134Z,98010.87
2018-07-01T12:19:27.927Z,98002.87
2018-07-01T12:20:31.323Z,98002.67
2018-07-01T12:21:34.591Z,98010.31
2018-07-01T12:22:37.392Z,98010.61
2018-07-01T12:23:40.469Z,98003.81
2018-07-01T12:24:45.472Z,98010.50
2018-07-01T12:25:49.197Z,98004.56
2018-07-01T12:26:53.188Z,98009.48
2018-07-01T12:27:56.347Z,98002.16
2018-07-01T12:29:01.219Z,98006.81
2018-07-01T12:30:08.735Z,97998.03
2018-07-01T12:31:16.353Z,97998.34
2018-07-01T12:32:19.871Z,97995.55
2018-07-01T12:33:24.173Z,97982.38
2018-07-01T12:34:27.629Z,97992.80
2018-07-01T12:35:31.645Z,97979.17
2018-07-01T12:36:37.275Z,97988.19
2018-07-01T12:37:40.254Z,97993.23
2018-07-01T12:38:45.720Z,97993.17
2018-07-01T12:39:49.090Z,97980.06
2018-07-01T12:40:52.452Z,97983.03
2018-07-01T12:41:55.330Z,97978.09
2018-07-01T12:42:58.599Z,97982.49
2018-07-01T12:44:02.957Z,97992.16
2018-07-01T12:45:08.391Z,97981.80
2018-07-01T12:46:11.217Z,97978.64
2018-07-01T12:47:13.992Z,97976.91
2018-07-01T12:48:17.524Z,97972.48
2018-07-01T12:49:23.007Z,97978.14
2018-07-01T12:50:25.865Z,97977.66
2018-07-01T12:51:28.664Z,97979.40
2018-07-01T12:52:33.840Z,97988.37
2018-07-01T12:53:37.367Z,97980.42
2018-07-01T12:54:46.822Z,97986.20
2018-07-01T12:55:50.535Z,97987.16
2018-07-01T12:56:54.408Z,97992.31
2018-07-01T12:57:57.222Z,97980.32
2018-07-01T12:59:00.892Z,97979.88
2018-07-01T13:00:04.371Z,97981.18
2018-07-01T13:01:09.696Z,97979.09
2018-07-01T13:02:13.328Z,97977.91
2018-07-01T13:03:16.661Z,97976.81
2018-07-01T13:04:19.710Z,97977.58
2018-07-01T13:05:23.461Z,97966.25
2018-07-01T13:06:26.498Z,97981.95
2018-07-01T13:07:29.699Z,97975.41
2018-07-01T13:08:32.734Z,97980.47
2018-07-01T13:09:36.598Z,97978.19
2018-07-01T13:10:40.333Z,97981.51
2018-07-01T13:11:44.152Z,97989.16
2018-07-01T13:12:48.606Z,97978.61
2018-07-01T13:13:52.823Z,97977.52
2018-07-01T13:14:55.612Z,97977.05
2018-07-01T13:15:58.755Z,97966.72
2018-07-01T13:17:02.545Z,97969.60
2018-07-01T13:58:43.908Z,97964.23
2018-07-01T13:59:46.636Z,97956.78
2018-07-01T14:00:49.514Z,97952.75
2018-07-01T14:01:52.293Z,97946.89
2018-07-01T14:03:03.657Z,97947.40
2018-07-01T14:04:08.286Z,97950.64
2018-07-01T14:05:11.577Z,97952.77
2018-07-01T14:06:17.435Z,97949.69
2018-07-01T14:07:20.819Z,97959.97
2018-07-01T14:08:24.285Z,97954.88
2018-07-01T14:09:27.447Z,97948.20
2018-07-01T14:10:30.859Z,97944.48
2018-07-01T14:11:33.647Z,97949.75
2018-07-01T14:12:36.588Z,97944.59
2018-07-01T14:14:51.578Z,97950.27
2018-07-01T14:15:55.906Z,97936.23
2018-07-01T14:16:58.683Z,97926.84
2018-07-01T14:18:01.939Z,97925.27
2018-07-01T14:19:04.743Z,97929.64
2018-07-01T14:20:09.853Z,97931.61
2018-07-01T14:21:15.761Z,97929.28
2018-07-01T14:22:21.438Z,97925.58
2018-07-01T14:23:26.361Z,97925.92
2018-07-01T14:24:29.280Z,97925.78
2018-07-01T14:25:32.132Z,97930.03
2018-07-01T14:26:37.136Z,97925.69
2018-07-01T14:27:40.419Z,97920.39
2018-07-01T14:28:43.490Z,97933.11
2018-07-01T14:29:47.575Z,97928.37
2018-07-01T14:30:52.306Z,97925.22
2018-07-01T14:31:55.221Z,97923.66
2018-07-01T14:32:58.612Z,97924.05
2018-07-01T14:34:02.416Z,97928.08
2018-07-01T14:35:06.361Z,97919.14
2018-07-01T14:36:12.032Z,97927.84
2018-07-01T14:37:15.384Z,97930.39
2018-07-01T14:38:18.303Z,97923.97
2018-07-01T14:39:21.095Z,97922.06
2018-07-01T14:40:24.442Z,97907.72
2018-07-01T14:41:28.271Z,97924.00
2018-07-01T14:42:33.089Z,97916.49
2018-07-01T14:43:36.593Z,97914.85
2018-07-01T14:44:41.677Z,97922.94
2018-07-01T14:45:44.781Z,97919.92
2018-07-01T14:46:47.910Z,97915.18
2018-07-01T14:47:51.491Z,97916.25
2018-07-01T14:48:54.278Z,97919.69
2018-07-01T14:49:57.748Z,97916.91
2018-07-01T14:51:08.070Z,97904.50
2018-07-01T14:52:12.340Z,97912.77
2018-07-01T14:54:37.368Z,97917.98
2018-07-01T15:01:13.047Z,97923.19
2018-07-01T15:02:17.014Z,97911.60
2018-07-01T15:03:20.438Z,97917.69
2018-07-01T15:04:23.226Z,97916.80
2018-07-01T15:05:26.622Z,97916.48
2018-07-01T15:06:30.180Z,97908.72
2018-07-01T15:07:35.672Z,97907.77
2018-07-01T15:08:39.678Z,97901.98
2018-07-01T15:09:43.319Z,97910.58
2018-07-01T15:10:47.481Z,97898.41
2018-07-01T15:11:50.268Z,97902.42
2018-07-01T15:12:53.043Z,97907.46
2018-07-01T15:13:58.624Z,97902.42
2018-07-01T15:15:02.670Z,97904.46
2018-07-01T15:16:06.086Z,97901.36
2018-07-01T15:17:11.020Z,97901.06
2018-07-01T15:18:19.401Z,97904.34
2018-07-01T15:19:22.680Z,97904.72
2018-07-01T15:20:26.013Z,97905.04
2018-07-01T15:21:28.826Z,97909.23
2018-07-01T15:22:33.277Z,97909.38
2018-07-01T15:23:37.460Z,97903.36
2018-07-01T15:24:40.319Z,97902.86
2018-07-01T15:25:43.442Z,97910.81
2018-07-01T15:26:47.780Z,97903.22
2018-07-01T15:27:50.793Z,97896.28
2018-07-01T15:28:53.549Z,97904.89
2018-07-01T15:29:58.375Z,97899.32
2018-07-01T15:31:01.134Z,97906.00
2018-07-01T15:32:04.539Z,97906.17
2018-07-01T15:33:08.234Z,97897.03
2018-07-01T15:34:11.302Z,97886.61
2018-07-01T15:35:14.824Z,97896.63
2018-07-01T15:36:18.700Z,97896.75
2018-07-01T15:37:21.479Z,97889.24
2018-07-01T15:38:25.241Z,97906.34
2018-07-01T15:39:28.291Z,97904.31
2018-07-01T15:40:31.179Z,97896.73
2018-07-01T15:41:33.923Z,97907.06
2018-07-01T15:42:37.530Z,97897.64
2018-07-01T15:43:41.000Z,97898.55
2018-07-01T15:44:43.784Z,97903.16
2018-07-01T15:45:46.920Z,97902.98
2018-07-01T15:46:49.669Z,97890.88
2018-07-01T15:47:52.462Z,97896.25
2018-07-01T15:48:55.242Z,97885.20
2018-07-01T15:49:58.027Z,97893.31
2018-07-01T15:52:10.741Z,97888.50
2018-07-01T15:53:13.696Z,97886.20
2018-07-01T15:54:16.658Z,97886.33
2018-07-01T15:55:20.241Z,97897.16
2018-07-01T16:03:31.037Z,97884.56
2018-07-01T16:04:35.690Z,97891.78
2018-07-01T16:05:43.354Z,97886.92
2018-07-01T16:06:49.044Z,97884.95
2018-07-01T16:07:54.663Z,97881.72
2018-07-01T16:09:02.310Z,97880.48
2018-07-01T16:10:06.655Z,97878.00
2018-07-01T16:11:11.306Z,97888.97
2018-07-01T16:14:56.022Z,97881.98
2018-07-01T16:16:01.404Z,97887.77
2018-07-01T16:17:08.392Z,97882.61
2018-07-01T16:18:11.882Z,97881.81
2018-07-01T16:19:17.553Z,97881.00
2018-07-01T16:20:22.900Z,97880.97
2018-07-01T16:22:52.955Z,97890.77
2018-07-01T16:24:03.021Z,97891.05
2018-07-01T16:25:14.423Z,97889.02
2018-07-01T16:26:24.673Z,97885.02
2018-07-01T16:27:34.147Z,97888.16
2018-07-01T16:29:51.094Z,97892.29
2018-07-01T16:30:55.824Z,97881.22
2018-07-01T16:32:01.504Z,97882.46
2018-07-01T16:33:06.824Z,97883.41
2018-07-01T16:34:13.511Z,97889.67
2018-07-01T16:35:17.055Z,97883.78
2018-07-01T16:36:26.304Z,97884.28
2018-07-01T16:37:30.168Z,97874.92
2018-07-01T16:38:40.561Z,97890.39
2018-07-01T16:39:44.708Z,97880.81
2018-07-01T16:40:52.935Z,97891.03
2018-07-01T16:41:57.912Z,97883.52
2018-07-01T16:43:08.623Z,97887.66
2018-07-01T16:44:19.791Z,97881.50
2018-07-01T16:45:28.243Z,97890.74
2018-07-01T16:46:47.364Z,97888.16
2018-07-01T16:47:50.779Z,97887.48
2018-07-01T16:51:32.695Z,97882.55
2018-07-01T16:53:55.629Z,97876.01
2018-07-01T16:55:02.520Z,97876.91
2018-07-01T16:56:06.241Z,97885.55
2018-07-01T16:57:10.105Z,97887.71
2018-07-01T16:58:16.588Z,97890.80
2018-07-01T16:59:35.043Z,97889.53
2018-07-01T17:00:39.142Z,97893.20
2018-07-01T17:01:45.810Z,97893.85
2018-07-01T17:02:50.589Z,97890.44
2018-07-01T17:03:59.447Z,97888.84
2018-07-01T17:05:03.869Z,97885.75
2018-07-01T17:06:16.405Z,97883.42
2018-07-01T17:07:21.748Z,97883.88
2018-07-01T17:08:25.480Z,97885.53
2018-07-01T17:09:29.307Z,97883.64
2018-07-01T17:10:41.351Z,97887.48
2018-07-01T17:11:50.671Z,97888.93
2018-07-01T17:12:57.376Z,97891.07
2018-07-01T17:14:02.573Z,97893.03
2018-07-01T17:15:07.011Z,97892.95
2018-07-01T17:16:19.798Z,97883.19
2018-07-01T17:17:25.741Z,97887.10
2018-07-01T17:18:30.560Z,97883.13
2018-07-01T17:19:34.206Z,97891.47
2018-07-01T17:20:37.425Z,97890.88
2018-07-01T17:21:40.642Z,97885.06
2018-07-01T17:22:45.236Z,97886.84
2018-07-01T17:23:51.043Z,97884.45
2018-07-01T17:24:58.421Z,97883.91
2018-07-01T17:26:03.700Z,97884.45
2018-07-01T17:27:08.261Z,97884.95
2018-07-01T17:28:14.711Z,97878.81
2018-07-01T17:29:24.814Z,97887.42
2018-07-01T17:30:28.001Z,97885.74
2018-07-01T17:33:40.458Z,97891.08
2018-07-01T17:34:48.045Z,97899.25
2018-07-01T17:35:52.911Z,97893.60
2018-07-01T17:36:57.129Z,97900.52
2018-07-01T17:38:00.365Z,97900.29
2018-07-01T17:39:05.335Z,97901.00
2018-07-01T17:40:11.989Z,97892.05
2018-07-01T17:41:18.938Z,97900.61
2018-07-01T17:42:22.017Z,97896.30
2018-07-01T17:43:30.402Z,97902.29
2018-07-01T17:47:46.037Z,97898.64
2018-07-01T17:48:51.066Z,97896.28
2018-07-01T17:49:56.536Z,97891.73
2018-07-01T17:51:08.495Z,97897.64
2018-07-01T17:53:39.721Z,97901.09
2018-07-01T17:54:48.269Z,97905.84
2018-07-01T17:55:57.557Z,97898.89
2018-07-01T17:58:22.494Z,97897.20
2018-07-01T17:59:33.498Z,97899.98
2018-07-01T18:00:40.999Z,97897.37
2018-07-01T18:01:47.028Z,97891.37
2018-07-01T18:02:58.991Z,97896.95
2018-07-01T18:04:05.229Z,97898.84
2018-07-01T18:05:15.664Z,97900.34
2018-07-01T18:06:19.798Z,97905.25
2018-07-01T18:07:23.969Z,97904.84
2018-07-01T18:08:30.878Z,97896.17
2018-07-01T18:09:34.427Z,97902.53
2018-07-01T18:11:53.815Z,97899.09
2018-07-01T18:12:58.648Z,97895.53
2018-07-01T18:15:25.659Z,97899.67
2018-07-01T18:16:30.327Z,97902.06
2018-07-01T18:17:38.903Z,97892.05
2018-07-01T18:18:41.989Z,97903.70
2018-07-01T18:19:46.683Z,97895.80
2018-07-01T18:20:52.817Z,97905.72
2018-07-01T18:22:21.717Z,97899.80
2018-07-01T18:23:27.404Z,97899.61
2018-07-01T18:25:19.831Z,97895.89
2018-07-01T18:26:24.007Z,97897.15
2018-07-01T18:27:27.198Z,97899.70
2018-07-01T18:28:41.525Z,97904.41
2018-07-01T18:29:36.064Z,97904.19
2018-07-01T18:30:46.155Z,97909.12
2018-07-01T18:31:49.570Z,97904.00
2018-07-01T18:32:52.478Z,97902.00
2018-07-01T18:33:56.100Z,97900.83
2018-07-01T18:35:00.352Z,97903.05
2018-07-01T18:36:04.802Z,97904.84
2018-07-01T18:37:09.264Z,97898.37
2018-07-01T18:38:12.956Z,97898.59
2018-07-01T18:39:16.128Z,97898.77
2018-07-01T18:40:20.054Z,97906.27
2018-07-01T18:41:29.011Z,97901.91
2018-07-01T18:43:45.151Z,97897.94
2018-07-01T18:44:50.889Z,97897.89
2018-07-01T18:45:54.361Z,97897.27
2018-07-01T18:46:58.211Z,97897.77
2018-07-01T18:48:01.372Z,97896.59
2018-07-01T18:49:09.918Z,97891.32
2018-07-01T18:50:15.436Z,97896.70
2018-07-01T18:51:18.493Z,97899.44
2018-07-01T18:52:23.280Z,97895.28
2018-07-01T18:53:31.440Z,97899.05
2018-07-01T18:54:36.234Z,97898.81
2018-07-01T18:55:42.269Z,97905.55
2018-07-01T18:56:45.505Z,97900.83
2018-07-01T18:57:48.594Z,97905.95
2018-07-01T18:58:54.990Z,97900.98
2018-07-01T18:59:58.573Z,97900.66
2018-07-01T19:01:09.299Z,97904.82
2018-07-01T19:02:12.502Z,97905.67
2018-07-01T19:03:16.072Z,97902.46
2018-07-01T19:04:20.257Z,97908.64
2018-07-01T19:05:24.664Z,97902.92
2018-07-01T19:06:28.123Z,97910.06
2018-07-01T19:07:31.491Z,97912.45
2018-07-01T19:08:40.370Z,97912.05
2018-07-01T19:09:43.361Z,97909.27
2018-07-01T19:10:46.373Z,97908.12
2018-07-01T19:11:51.602Z,97909.51
2018-07-01T19:12:56.149Z,97909.92
2018-07-01T19:14:01.046Z,97906.56
2018-07-01T19:16:17.819Z,97913.30
2018-07-01T19:17:21.620Z,97910.53
2018-07-01T19:18:29.061Z,97905.77
2018-07-01T19:19:33.369Z,97909.50
2018-07-01T19:21:49.784Z,97906.44
2018-07-01T19:22:58.498Z,97906.44
2018-07-01T19:24:03.370Z,97900.29
2018-07-01T19:25:10.837Z,97912.18
2018-07-01T19:26:22.418Z,97915.36
2018-07-01T19:28:44.883Z,97909.23
2018-07-01T20:59:24.890Z,97971.88
2018-07-01T21:00:31.354Z,97972.08
2018-07-01T21:01:36.086Z,97969.30
2018-07-01T21:02:42.346Z,97974.61
2018-07-01T21:03:49.062Z,97966.72
2018-07-01T21:04:54.684Z,97976.20
2018-07-01T21:07:15.394Z,97974.16
2018-07-01T21:08:20.697Z,97976.85
2018-07-01T21:09:25.138Z,97972.11
2018-07-01T21:10:28.803Z,97973.91
2018-07-01T21:11:34.043Z,97966.59
2018-07-01T21:12:44.660Z,97963.86
2018-07-01T21:15:15.560Z,97975.86
2018-07-01T21:16:35.902Z,97973.25
2018-07-01T21:17:42.381Z,97977.56
2018-07-01T21:18:47.448Z,97973.64
2018-07-01T21:19:51.535Z,97977.78
2018-07-01T21:20:57.624Z,97981.87
2018-07-01T21:23:25.061Z,97980.25
2018-07-01T21:24:38.536Z,97975.13
2018-07-01T21:25:45.666Z,97977.46
2018-07-01T21:26:57.519Z,97975.88
2018-07-01T21:29:27.300Z,97982.41
2018-07-01T21:30:32.994Z,97985.17
2018-07-01T21:31:37.372Z,97984.89
2018-07-01T21:32:42.353Z,97983.94
2018-07-01T21:33:47.397Z,97986.87
2018-07-01T21:34:50.641Z,97984.92
2018-07-01T21:35:56.224Z,97978.63
2018-07-01T21:37:00.520Z,97982.95
2018-07-01T21:38:04.305Z,97985.95
2018-07-01T21:39:17.690Z,97988.47
2018-07-01T21:40:22.394Z,97986.09
2018-07-01T21:41:26.912Z,97987.75
2018-07-01T21:42:30.116Z,97980.49
2018-07-01T22:27:18.856Z,98002.74
2018-07-01T22:28:22.943Z,98005.84
2018-07-01T22:29:26.472Z,98004.02
2018-07-01T22:30:29.439Z,98008.09
2018-07-01T22:31:33.263Z,98002.75
2018-07-01T22:32:36.696Z,98001.16
2018-07-01T22:33:43.291Z,98010.42
2018-07-01T22:34:46.904Z,98014.55
2018-07-01T22:35:50.102Z,98018.03
2018-07-01T22:36:55.974Z,98014.84
2018-07-01T22:37:59.975Z,98014.11
2018-07-01T22:39:02.990Z,98016.50
2018-07-01T22:40:06.788Z,98015.77
2018-07-01T22:41:10.472Z,98013.58
2018-07-01T22:42:14.367Z,98010.92
2018-07-01T22:43:17.788Z,98015.84
2018-07-01T22:44:21.359Z,98021.00
2018-07-01T22:45:24.430Z,98018.92
2018-07-01T22:46:27.415Z,98015.44
2018-07-01T22:47:30.719Z,98013.89
2018-07-01T22:48:34.586Z,98018.45
2018-07-01T22:49:37.510Z,98015.84
2018-07-01T22:50:41.812Z,98021.84
2018-07-01T22:51:45.414Z,98013.34
2018-07-01T22:52:48.820Z,98017.42
2018-07-01T22:53:57.903Z,98020.17
2018-07-01T22:55:01.213Z,98020.74
2018-07-01T22:56:04.893Z,98022.45
2018-07-01T22:57:08.962Z,98018.42
2018-07-01T22:58:15.262Z,98020.11
2018-07-01T22:59:19.877Z,98020.56
2018-07-01T23:00:23.391Z,98021.66
2018-07-01T23:01:28.186Z,98009.87
2018-07-01T23:02:35.955Z,98014.16
2018-07-01T23:03:38.939Z,98014.40
2018-07-01T23:04:44.683Z,98013.56
2018-07-01T23:05:47.732Z,98013.51
2018-07-01T23:06:54.773Z,98013.17
2018-07-01T23:07:58.248Z,98011.53
2018-07-01T23:09:01.556Z,98014.45
2018-07-01T23:10:05.269Z,98012.57
2018-07-01T23:11:08.991Z,98016.54
2018-07-01T23:12:12.879Z,98018.41
2018-07-01T23:13:16.908Z,98013.78
2018-07-01T23:14:19.777Z,98009.77
2018-07-01T23:15:23.317Z,98017.24
2018-07-01T23:16:26.760Z,98008.71
2018-07-01T23:17:31.415Z,98015.27
2018-07-01T23:18:34.523Z,98009.06
2018-07-01T23:19:39.053Z,98009.11
2018-07-01T23:20:42.753Z,98009.48
2018-07-01T23:21:47.985Z,98007.35
2018-07-01T23:22:52.737Z,98005.14
2018-07-01T23:23:55.712Z,98003.22
2018-07-01T23:24:58.802Z,98013.83
2018-07-01T23:26:04.196Z,98014.61
2018-07-01T23:27:10.604Z,98016.09
2018-07-01T23:28:19.760Z,98010.69
2018-07-01T23:29:23.471Z,98008.31
2018-07-01T23:30:27.993Z,98015.27
2018-07-01T23:31:32.928Z,98008.33
2018-07-01T23:32:36.744Z,98006.25
2018-07-01T23:33:39.822Z,98007.84
2018-07-01T23:34:43.805Z,98008.59
2018-07-01T23:35:48.627Z,98004.20
2018-07-01T23:36:56.293Z,98003.66
2018-07-01T23:38:00.766Z,97998.04
2018-07-01T23:39:11.823Z,97999.23
2018-07-01T23:40:14.888Z,97993.23
2018-07-01T23:41:18.975Z,97998.80
2018-07-01T23:42:22.472Z,97995.50
2018-07-01T23:43:27.711Z,97995.62
2018-07-01T23:44:31.088Z,97990.32
2018-07-01T23:45:38.232Z,97994.13
2018-07-01T23:46:41.618Z,97994.23
2018-07-01T23:47:52.258Z,97994.09
2018-07-01T23:48:55.192Z,97993.91
2018-07-01T23:50:05.830Z,97994.61
2018-07-01T23:51:10.421Z,97994.66
2018-07-01T23:52:15.222Z,97995.20
2018-07-01T23:53:18.339Z,97997.08
2018-07-01T23:54:22.418Z,98000.91
2018-07-01T23:55:25.382Z,98000.78
2018-07-01T23:56:32.407Z,98001.16
2018-07-01T23:57:41.974Z,97999.00
2018-07-01T23:58:45.682Z,97997.31
2018-07-01T23:59:48.577Z,97988.90
